createdAt,value
2023-05-04T00:00:10.521Z,11.20
2023-05-04T00:02:37.596Z,11.20
2023-05-04T00:05:06.264Z,11.20
2023-05-04T00:07:33.311Z,11.20
2023-05-04T00:10:01.189Z,11.20
2023-05-04T00:12:28.559Z,11.20
2023-05-04T00:14:55.694Z,11.10
2023-05-04T00:17:22.887Z,11.20
2023-05-04T00:19:49.857Z,11.10
2023-05-04T00:22:16.992Z,11.10
2023-05-04T00:24:46.505Z,11.10
2023-05-04T00:27:13.459Z,11.10
2023-05-04T00:29:40.321Z,11.20
2023-05-04T00:32:07.267Z,11.20
2023-05-04T00:34:34.328Z,11.20
2023-05-04T00:37:01.310Z,11.10
2023-05-04T00:39:28.160Z,11.00
2023-05-04T00:41:55.101Z,11.00
2023-05-04T00:44:24.049Z,11.00
2023-05-04T00:46:55.202Z,11.00
2023-05-04T00:49:23.206Z,10.90
2023-05-04T00:51:51.263Z,10.80
2023-05-04T00:54:18.709Z,10.70
2023-05-04T00:56:45.933Z,10.70
2023-05-04T00:59:13.940Z,10.80
2023-05-04T01:01:41.941Z,10.80
2023-05-04T01:04:09.172Z,10.70
2023-05-04T01:06:50.401Z,10.60
2023-05-04T01:09:43.050Z,10.50
2023-05-04T01:12:28.966Z,10.50
2023-05-04T01:14:56.725Z,10.50
2023-05-04T01:17:23.527Z,10.50
2023-05-04T01:19:51.229Z,10.40
2023-05-04T01:22:18.007Z,10.50
2023-05-04T01:24:45.146Z,10.40
2023-05-04T01:27:22.748Z,10.40
2023-05-04T01:29:54.703Z,10.30
2023-05-04T01:32:23.050Z,10.20
2023-05-04T01:34:50.043Z,10.20
2023-05-04T01:37:16.880Z,10.10
2023-05-04T01:39:43.619Z,10.10
2023-05-04T01:42:10.424Z,10.00
2023-05-04T01:44:37.403Z,9.90
2023-05-04T01:47:04.288Z,9.90
2023-05-04T01:49:31.047Z,10.00
2023-05-04T01:51:57.981Z,10.00
2023-05-04T01:54:24.870Z,9.90
2023-05-04T01:56:51.818Z,9.90
2023-05-04T01:59:18.759Z,9.90
2023-05-04T02:01:46.838Z,9.90
2023-05-04T02:04:13.771Z,9.80
2023-05-04T02:06:40.633Z,9.80
2023-05-04T02:09:07.517Z,9.80
2023-05-04T02:11:34.277Z,9.80
2023-05-04T02:14:01.047Z,9.80
2023-05-04T02:16:27.875Z,9.80
2023-05-04T02:18:54.694Z,9.70
2023-05-04T02:21:21.598Z,9.70
2023-05-04T02:23:48.398Z,9.80
2023-05-04T02:26:15.283Z,9.80
2023-05-04T02:28:42.058Z,9.90
2023-05-04T02:31:08.888Z,9.90
2023-05-04T02:33:35.694Z,9.90
2023-05-04T02:36:03.023Z,9.90
2023-05-04T02:38:29.858Z,9.90
2023-05-04T02:40:58.344Z,10.00
2023-05-04T02:43:25.269Z,10.00
2023-05-04T02:45:52.059Z,9.90
2023-05-04T02:48:18.868Z,10.00
2023-05-04T02:50:46.562Z,10.00
2023-05-04T02:53:13.380Z,10.00
2023-05-04T02:55:40.102Z,9.90
2023-05-04T02:58:07.558Z,9.90
2023-05-04T03:00:34.422Z,9.80
2023-05-04T03:03:01.757Z,9.90
2023-05-04T03:05:28.726Z,9.80
2023-05-04T03:07:55.613Z,9.80
2023-05-04T03:10:22.420Z,9.70
2023-05-04T03:12:49.185Z,9.70
2023-05-04T03:15:16.716Z,9.60
2023-05-04T03:17:43.626Z,9.50
2023-05-04T03:20:12.849Z,9.50
2023-05-04T03:22:39.655Z,9.40
2023-05-04T03:25:07.162Z,9.30
2023-05-04T03:27:33.911Z,9.30
2023-05-04T03:30:00.821Z,9.30
2023-05-04T03:32:27.853Z,9.30
2023-05-04T03:34:54.765Z,9.30
2023-05-04T03:37:21.520Z,9.30
2023-05-04T03:39:48.621Z,9.30
2023-05-04T03:42:15.561Z,9.20
2023-05-04T03:44:42.471Z,9.20
2023-05-04T03:47:09.755Z,9.10
2023-05-04T03:49:36.653Z,9.10
2023-05-04T03:52:03.792Z,9.10
2023-05-04T03:54:31.034Z,9.10
2023-05-04T03:56:57.942Z,9.20
2023-05-04T03:59:25.139Z,9.30
2023-05-04T04:01:51.936Z,9.30
2023-05-04T04:04:18.719Z,9.30
2023-05-04T04:06:45.996Z,9.30
2023-05-04T04:09:12.818Z,9.40
2023-05-04T04:11:40.588Z,9.50
2023-05-04T04:14:07.689Z,9.50
2023-05-04T04:16:34.585Z,9.60
2023-05-04T04:19:02.287Z,9.60
2023-05-04T04:21:29.343Z,9.70
2023-05-04T04:23:56.317Z,9.70
2023-05-04T04:26:23.168Z,9.80
2023-05-04T04:28:50.980Z,9.80
2023-05-04T04:31:19.763Z,9.90
2023-05-04T04:33:48.027Z,10.00
2023-05-04T04:36:18.284Z,10.00
2023-05-04T04:38:45.331Z,10.00
2023-05-04T04:41:12.366Z,10.10
2023-05-04T04:43:39.729Z,10.10
2023-05-04T04:46:06.613Z,10.20
2023-05-04T04:48:33.431Z,10.20
2023-05-04T04:51:00.416Z,10.30
2023-05-04T04:53:27.220Z,10.30
2023-05-04T04:55:54.682Z,10.40
2023-05-04T04:58:22.019Z,10.40
2023-05-04T05:00:49.034Z,10.40
2023-05-04T05:03:16.080Z,10.50
2023-05-04T05:05:42.965Z,10.60
2023-05-04T05:08:09.772Z,10.60
2023-05-04T05:10:36.503Z,10.60
2023-05-04T05:13:03.347Z,10.60
2023-05-04T05:15:30.152Z,10.70
2023-05-04T05:17:56.981Z,10.70
2023-05-04T05:20:24.161Z,10.80
2023-05-04T05:22:52.142Z,10.80
2023-05-04T05:25:19.575Z,10.80
2023-05-04T05:27:46.433Z,10.80
2023-05-04T05:30:13.872Z,10.90
2023-05-04T05:32:40.758Z,10.90
2023-05-04T05:35:08.371Z,10.90
2023-05-04T05:37:35.224Z,10.80
2023-05-04T05:40:02.226Z,10.90
2023-05-04T05:42:32.326Z,10.90
2023-05-04T05:44:59.290Z,11.00
2023-05-04T05:47:26.148Z,11.00
2023-05-04T05:49:53.181Z,11.00
2023-05-04T05:52:19.940Z,11.10
2023-05-04T05:54:46.774Z,11.10
2023-05-04T05:57:13.550Z,11.20
2023-05-04T05:59:42.190Z,11.20
2023-05-04T06:02:08.952Z,11.30
2023-05-04T06:04:36.315Z,11.30
2023-05-04T06:07:03.142Z,11.30
2023-05-04T06:09:29.894Z,11.30
2023-05-04T06:11:59.416Z,11.40
2023-05-04T06:14:26.266Z,11.40
2023-05-04T06:16:53.124Z,11.50
2023-05-04T06:19:19.855Z,11.60
2023-05-04T06:21:49.533Z,11.60
2023-05-04T06:24:16.568Z,11.60
2023-05-04T06:26:43.315Z,11.70
2023-05-04T06:29:10.183Z,11.70
2023-05-04T06:31:37.842Z,11.80
2023-05-04T06:34:04.764Z,11.80
2023-05-04T06:36:31.515Z,11.90
2023-05-04T06:38:58.355Z,12.00
2023-05-04T06:41:25.570Z,12.10
2023-05-04T06:43:52.451Z,12.10
2023-05-04T06:46:19.308Z,12.20
2023-05-04T06:48:46.155Z,12.20
2023-05-04T06:51:12.916Z,12.30
2023-05-04T06:53:39.734Z,12.40
2023-05-04T06:56:07.438Z,12.40
2023-05-04T06:58:34.399Z,12.40
2023-05-04T07:01:01.723Z,12.50
2023-05-04T07:03:28.620Z,12.60
2023-05-04T07:05:55.562Z,12.70
2023-05-04T07:08:22.373Z,12.70
2023-05-04T07:10:49.271Z,12.70
2023-05-04T07:13:16.128Z,12.80
2023-05-04T07:15:42.944Z,12.90
2023-05-04T07:18:10.135Z,13.00
2023-05-04T07:20:37.040Z,13.00
2023-05-04T07:23:05.028Z,13.00
2023-05-04T07:25:31.962Z,13.00
2023-05-04T07:27:59.126Z,13.10
2023-05-04T07:30:26.453Z,13.20
2023-05-04T07:32:53.547Z,13.20
2023-05-04T07:35:20.641Z,13.30
2023-05-04T07:37:47.515Z,13.30
2023-05-04T07:40:17.288Z,13.40
2023-05-04T07:42:44.113Z,13.40
2023-05-04T07:45:11.090Z,13.40
2023-05-04T07:47:37.893Z,13.40
2023-05-04T07:50:05.289Z,13.50
2023-05-04T07:52:32.968Z,13.50
2023-05-04T07:54:59.927Z,13.50
2023-05-04T07:57:26.741Z,13.50
2023-05-04T07:59:56.377Z,13.60
2023-05-04T08:02:23.752Z,13.70
2023-05-04T08:04:50.621Z,13.80
2023-05-04T08:07:17.563Z,13.80
2023-05-04T08:09:44.431Z,13.90
2023-05-04T08:12:12.378Z,13.90
2023-05-04T08:14:39.979Z,13.90
2023-05-04T08:17:06.772Z,14.00
2023-05-04T08:19:34.009Z,14.00
2023-05-04T08:22:00.819Z,14.10
2023-05-04T08:24:27.616Z,14.10
2023-05-04T08:27:06.983Z,14.10
2023-05-04T08:29:37.228Z,14.20
2023-05-04T08:32:04.414Z,14.30
2023-05-04T08:34:31.454Z,14.40
2023-05-04T08:36:58.325Z,14.50
2023-05-04T08:39:25.256Z,14.60
2023-05-04T08:41:52.108Z,14.70
2023-05-04T08:44:19.256Z,14.70
2023-05-04T08:46:52.460Z,14.80
2023-05-04T08:49:20.728Z,14.90
2023-05-04T08:51:51.239Z,14.90
2023-05-04T08:54:18.922Z,15.00
2023-05-04T08:56:47.208Z,15.10
2023-05-04T08:59:21.495Z,15.10
2023-05-04T09:01:55.960Z,15.10
2023-05-04T09:04:23.148Z,15.00
2023-05-04T09:06:50.389Z,15.10
2023-05-04T09:09:17.274Z,15.20
2023-05-04T09:11:44.391Z,15.20
2023-05-04T09:14:11.401Z,15.20
2023-05-04T09:16:39.080Z,15.20
2023-05-04T09:19:20.330Z,15.30
2023-05-04T09:21:48.206Z,15.30
2023-05-04T09:24:26.731Z,15.30
2023-05-04T09:26:53.630Z,15.30
2023-05-04T09:29:22.379Z,15.30
2023-05-04T09:31:51.020Z,15.30
2023-05-04T09:34:20.604Z,15.30
2023-05-04T09:37:02.275Z,15.30
2023-05-04T09:39:30.056Z,15.40
2023-05-04T09:41:57.124Z,15.40
2023-05-04T09:44:26.913Z,15.50
2023-05-04T09:46:56.504Z,15.50
2023-05-04T09:49:33.736Z,15.50
2023-05-04T09:52:02.948Z,15.50
2023-05-04T09:54:39.102Z,15.50
2023-05-04T09:57:11.639Z,15.50
2023-05-04T09:59:39.636Z,15.60
2023-05-04T10:02:14.445Z,15.70
2023-05-04T10:04:50.617Z,15.70
2023-05-04T10:07:18.148Z,15.70
2023-05-04T10:09:46.937Z,15.80
2023-05-04T10:12:14.553Z,15.80
2023-05-04T10:14:42.875Z,15.80
2023-05-04T10:17:27.610Z,15.80
2023-05-04T10:19:57.645Z,15.80
2023-05-04T10:22:43.372Z,15.70
2023-05-04T10:25:23.859Z,15.70
2023-05-04T10:28:04.310Z,15.80
2023-05-04T10:30:31.504Z,15.80
2023-05-04T10:32:58.829Z,15.80
2023-05-04T10:35:25.943Z,15.80
2023-05-04T10:37:56.684Z,15.90
2023-05-04T10:40:37.643Z,15.90
2023-05-04T10:43:05.325Z,15.90
2023-05-04T10:45:42.319Z,15.90
2023-05-04T10:48:09.886Z,16.00
2023-05-04T10:50:51.715Z,16.00
2023-05-04T10:53:18.875Z,16.00
2023-05-04T10:55:47.843Z,16.00
2023-05-04T10:58:19.133Z,16.00
2023-05-04T11:00:47.981Z,16.00
2023-05-04T11:03:15.394Z,16.00
2023-05-04T11:05:46.952Z,16.10
2023-05-04T11:08:18.268Z,16.20
2023-05-04T11:10:47.499Z,16.20
2023-05-04T11:13:16.356Z,16.30
2023-05-04T11:15:50.214Z,16.30
2023-05-04T11:18:30.933Z,16.30
2023-05-04T11:20:58.716Z,16.30
2023-05-04T11:23:25.823Z,16.30
2023-05-04T11:25:53.055Z,16.40
2023-05-04T11:28:19.919Z,16.30
2023-05-04T11:30:47.815Z,16.40
2023-05-04T11:33:15.772Z,16.40
2023-05-04T11:35:43.905Z,16.40
2023-05-04T11:38:11.141Z,16.50
2023-05-04T11:40:41.157Z,16.50
2023-05-04T11:43:11.269Z,16.50
2023-05-04T11:45:41.352Z,16.60
2023-05-04T11:48:09.228Z,16.50
2023-05-04T11:50:36.311Z,16.50
2023-05-04T11:53:10.646Z,16.50
2023-05-04T11:55:38.199Z,16.60
2023-05-04T11:58:10.784Z,16.70
2023-05-04T12:00:43.128Z,16.80
2023-05-04T12:03:15.335Z,16.80
2023-05-04T12:05:53.927Z,16.90
2023-05-04T12:08:27.556Z,16.90
2023-05-04T12:11:13.246Z,16.90
2023-05-04T12:13:41.290Z,16.90
2023-05-04T12:16:16.529Z,17.00
2023-05-04T12:18:45.358Z,17.10
2023-05-04T12:21:14.695Z,17.10
2023-05-04T12:23:42.067Z,17.10
2023-05-04T12:26:10.312Z,17.10
2023-05-04T12:28:38.125Z,17.10
2023-05-04T12:31:07.034Z,17.20
2023-05-04T12:33:34.893Z,17.20
2023-05-04T12:36:03.158Z,17.20
2023-05-04T12:38:30.189Z,17.30
2023-05-04T12:41:04.308Z,17.40
2023-05-04T12:43:32.271Z,17.40
2023-05-04T12:45:59.268Z,17.40
2023-05-04T12:48:28.384Z,17.40
2023-05-04T12:50:56.083Z,17.40
2023-05-04T12:53:25.764Z,17.50
2023-05-04T12:55:52.690Z,17.50
2023-05-04T12:58:19.723Z,17.60
2023-05-04T13:00:46.601Z,17.60
2023-05-04T13:03:13.822Z,17.60
2023-05-04T13:05:40.859Z,17.70
2023-05-04T13:08:08.509Z,17.80
2023-05-04T13:10:35.772Z,17.80
2023-05-04T13:13:04.806Z,17.80
2023-05-04T13:15:33.194Z,17.90
2023-05-04T13:18:00.592Z,17.90
2023-05-04T13:20:27.691Z,17.90
2023-05-04T13:22:58.172Z,18.00
2023-05-04T13:25:25.649Z,18.00
2023-05-04T13:27:52.748Z,18.00
2023-05-04T13:30:21.573Z,18.10
2023-05-04T13:32:49.174Z,18.10
2023-05-04T13:35:16.571Z,18.10
2023-05-04T13:37:43.416Z,18.10
2023-05-04T13:40:10.868Z,18.10
2023-05-04T13:42:38.144Z,18.20
2023-05-04T13:45:06.680Z,18.20
2023-05-04T13:47:37.089Z,18.20
2023-05-04T13:50:04.541Z,18.20
2023-05-04T13:52:32.439Z,18.30
2023-05-04T13:54:59.592Z,18.30
2023-05-04T13:57:29.806Z,18.30
2023-05-04T14:00:07.216Z,18.30
2023-05-04T14:02:35.465Z,18.30
2023-05-04T14:05:04.288Z,18.20
2023-05-04T14:07:31.491Z,18.30
2023-05-04T14:09:59.182Z,18.30
2023-05-04T14:12:25.956Z,18.40
2023-05-04T14:14:52.953Z,18.40
2023-05-04T14:17:19.888Z,18.50
2023-05-04T14:19:46.637Z,18.50
2023-05-04T14:22:13.463Z,18.60
2023-05-04T14:24:40.219Z,18.60
2023-05-04T14:27:07.233Z,18.50
2023-05-04T14:29:34.405Z,18.50
2023-05-04T14:32:01.611Z,18.50
2023-05-04T14:34:28.626Z,18.50
2023-05-04T14:36:55.497Z,18.50
2023-05-04T14:39:22.537Z,18.50
2023-05-04T14:41:49.459Z,18.50
2023-05-04T14:44:16.517Z,18.40
2023-05-04T14:46:43.386Z,18.40
2023-05-04T14:49:12.513Z,18.40
2023-05-04T14:51:43.185Z,18.40
2023-05-04T14:54:10.017Z,18.40
2023-05-04T14:56:36.795Z,18.40
2023-05-04T14:59:03.658Z,18.40
2023-05-04T15:01:30.692Z,18.40
2023-05-04T15:03:57.644Z,18.40
2023-05-04T15:06:24.509Z,18.40
2023-05-04T15:08:51.299Z,18.40
2023-05-04T15:11:19.397Z,18.40
2023-05-04T15:13:46.405Z,18.40
2023-05-04T15:16:17.813Z,18.40
2023-05-04T15:18:44.839Z,18.40
2023-05-04T15:21:11.643Z,18.30
2023-05-04T15:23:38.648Z,18.40
2023-05-04T15:26:05.689Z,18.40
2023-05-04T15:28:32.506Z,18.40
2023-05-04T15:31:00.626Z,18.40
2023-05-04T15:33:27.548Z,18.40
2023-05-04T15:35:55.200Z,18.40
2023-05-04T15:38:22.134Z,18.40
2023-05-04T15:40:48.940Z,18.40
2023-05-04T15:43:16.254Z,18.30
2023-05-04T15:45:43.182Z,18.30
2023-05-04T15:48:10.064Z,18.30
2023-05-04T15:50:36.951Z,18.30
2023-05-04T15:53:03.793Z,18.30
2023-05-04T15:55:30.866Z,18.40
2023-05-04T15:57:57.678Z,18.40
2023-05-04T16:00:24.549Z,18.40
2023-05-04T16:02:51.936Z,18.40
2023-05-04T16:05:19.029Z,18.40
2023-05-04T16:07:46.162Z,18.40
2023-05-04T16:10:13.085Z,18.40
2023-05-04T16:12:39.917Z,18.40
2023-05-04T16:15:07.456Z,18.40
2023-05-04T16:17:35.545Z,18.50
2023-05-04T16:20:07.879Z,18.40
2023-05-04T16:22:34.896Z,18.40
2023-05-04T16:25:02.344Z,18.40
2023-05-04T16:27:29.404Z,18.40
2023-05-04T16:29:56.291Z,18.40
2023-05-04T16:32:23.204Z,18.40
2023-05-04T16:35:10.294Z,18.30
2023-05-04T16:37:39.955Z,18.30
2023-05-04T16:40:43.660Z,18.30
2023-05-04T16:43:10.620Z,18.20
2023-05-04T16:45:38.185Z,18.20
2023-05-04T16:48:06.313Z,18.10
2023-05-04T16:50:33.216Z,18.10
2023-05-04T16:53:00.034Z,18.10
2023-05-04T16:55:27.228Z,18.10
2023-05-04T16:57:58.141Z,18.10
2023-05-04T17:00:25.437Z,18.10
2023-05-04T17:02:52.919Z,18.10
2023-05-04T17:05:20.785Z,18.10
2023-05-04T17:07:47.601Z,18.10
2023-05-04T17:10:20.603Z,18.10
2023-05-04T17:12:47.509Z,18.10
2023-05-04T17:15:14.395Z,18.10
2023-05-04T17:17:41.571Z,18.10
2023-05-04T17:20:14.439Z,18.10
2023-05-04T17:22:44.936Z,18.10
2023-05-04T17:25:12.950Z,18.10
2023-05-04T17:27:39.954Z,18.00
2023-05-04T17:30:07.584Z,18.00
2023-05-04T17:32:36.744Z,18.00
2023-05-04T17:35:12.173Z,17.90
2023-05-04T17:37:47.557Z,17.90
2023-05-04T17:40:14.497Z,17.90
2023-05-04T17:42:41.336Z,17.90
2023-05-04T17:45:08.756Z,17.90
2023-05-04T17:47:38.044Z,17.80
2023-05-04T17:50:06.001Z,17.80
2023-05-04T17:52:33.087Z,17.70
2023-05-04T17:54:59.945Z,17.70
2023-05-04T17:57:26.739Z,17.70
2023-05-04T17:59:53.576Z,17.70
2023-05-04T18:02:20.492Z,17.60
2023-05-04T18:04:47.348Z,17.60
2023-05-04T18:07:14.199Z,17.50
2023-05-04T18:09:41.065Z,17.50
2023-05-04T18:12:09.195Z,17.50
2023-05-04T18:14:47.028Z,17.50
2023-05-04T18:17:14.162Z,17.50
2023-05-04T18:19:43.505Z,17.40
2023-05-04T18:22:10.429Z,17.40
2023-05-04T18:24:37.421Z,17.40
2023-05-04T18:27:04.351Z,17.40
2023-05-04T18:29:32.042Z,17.30
2023-05-04T18:31:59.666Z,17.30
2023-05-04T18:34:26.803Z,17.20
2023-05-04T18:36:53.845Z,17.20
2023-05-04T18:39:20.820Z,17.10
2023-05-04T18:41:47.640Z,17.10
2023-05-04T18:44:14.520Z,17.10
2023-05-04T18:46:41.495Z,17.00
2023-05-04T18:49:11.873Z,17.00
2023-05-04T18:51:41.811Z,16.90
2023-05-04T18:54:09.085Z,16.90
2023-05-04T18:56:38.457Z,16.80
2023-05-04T18:59:06.226Z,16.80
2023-05-04T19:01:33.209Z,16.80
2023-05-04T19:04:00.195Z,16.70
2023-05-04T19:06:27.008Z,16.70
2023-05-04T19:08:53.843Z,16.70
2023-05-04T19:11:21.606Z,16.70
2023-05-04T19:13:49.880Z,16.70
2023-05-04T19:16:17.178Z,16.60
2023-05-04T19:18:47.070Z,16.60
2023-05-04T19:21:13.948Z,16.60
2023-05-04T19:23:40.907Z,16.50
2023-05-04T19:26:07.720Z,16.50
2023-05-04T19:28:35.111Z,16.40
2023-05-04T19:31:02.029Z,16.40
2023-05-04T19:33:40.478Z,16.40
2023-05-04T19:36:11.742Z,16.30
2023-05-04T19:38:38.778Z,16.30
2023-05-04T19:41:13.923Z,16.30
2023-05-04T19:43:42.715Z,16.20
2023-05-04T19:46:09.797Z,16.10
2023-05-04T19:48:36.965Z,16.10
2023-05-04T19:51:05.162Z,16.10
2023-05-04T19:53:35.292Z,16.10
2023-05-04T19:56:02.169Z,16.10
2023-05-04T19:58:30.867Z,16.00
2023-05-04T20:01:04.117Z,16.00
2023-05-04T20:03:39.910Z,16.00
2023-05-04T20:06:07.356Z,16.00
2023-05-04T20:08:34.214Z,16.00
2023-05-04T20:11:01.003Z,16.00
2023-05-04T20:13:27.866Z,16.00
2023-05-04T20:15:54.681Z,16.10
2023-05-04T20:18:24.472Z,16.10
2023-05-04T20:20:52.196Z,16.10
2023-05-04T20:23:29.601Z,16.00
2023-05-04T20:25:56.496Z,16.00
2023-05-04T20:28:25.505Z,16.00
2023-05-04T20:30:52.589Z,16.00
2023-05-04T20:33:19.577Z,16.00
2023-05-04T20:35:46.416Z,15.90
2023-05-04T20:38:13.595Z,15.90
2023-05-04T20:40:40.349Z,15.90
2023-05-04T20:43:07.132Z,15.80
2023-05-04T20:45:34.293Z,15.80
2023-05-04T20:48:04.442Z,15.80
2023-05-04T20:50:31.240Z,15.90
2023-05-04T20:52:58.524Z,15.80
2023-05-04T20:55:25.446Z,15.80
2023-05-04T20:57:52.243Z,15.80
2023-05-04T21:00:19.974Z,15.80
2023-05-04T21:02:47.193Z,15.70
2023-05-04T21:05:14.039Z,15.70
2023-05-04T21:07:40.996Z,15.70
2023-05-04T21:10:08.701Z,15.60
2023-05-04T21:12:35.811Z,15.60
2023-05-04T21:15:02.644Z,15.50
2023-05-04T21:17:29.453Z,15.50
2023-05-04T21:19:56.949Z,15.50
2023-05-04T21:22:23.712Z,15.40
2023-05-04T21:24:50.963Z,15.50
2023-05-04T21:27:17.713Z,15.40
2023-05-04T21:29:48.823Z,15.40
2023-05-04T21:32:15.695Z,15.40
2023-05-04T21:34:42.439Z,15.40
2023-05-04T21:37:09.790Z,15.40
2023-05-04T21:39:36.945Z,15.40
2023-05-04T21:42:03.859Z,15.30
2023-05-04T21:44:30.584Z,15.30
2023-05-04T21:46:57.458Z,15.20
2023-05-04T21:49:24.745Z,15.20
2023-05-04T21:51:51.538Z,15.20
2023-05-04T21:54:18.279Z,15.20
2023-05-04T21:56:45.238Z,15.10
2023-05-04T21:59:12.032Z,15.10
2023-05-04T22:01:38.891Z,15.10
2023-05-04T22:04:07.137Z,15.00
2023-05-04T22:06:34.373Z,15.00
2023-05-04T22:09:01.231Z,14.90
2023-05-04T22:11:27.979Z,14.90
2023-05-04T22:13:54.753Z,14.90
2023-05-04T22:16:21.702Z,14.80
2023-05-04T22:18:49.553Z,14.80
2023-05-04T22:21:16.364Z,14.80
2023-05-04T22:23:43.106Z,14.80
2023-05-04T22:26:09.929Z,14.70
2023-05-04T22:28:36.652Z,14.70
2023-05-04T22:31:03.428Z,14.70
2023-05-04T22:33:30.487Z,14.60
2023-05-04T22:35:57.292Z,14.70
2023-05-04T22:38:24.080Z,14.70
2023-05-04T22:40:50.834Z,14.60
2023-05-04T22:43:17.616Z,14.60
2023-05-04T22:45:44.358Z,14.60
2023-05-04T22:48:11.125Z,14.60
2023-05-04T22:50:37.903Z,14.60
2023-05-04T22:53:04.764Z,14.50
2023-05-04T22:55:31.951Z,14.60
2023-05-04T22:57:58.887Z,14.50
2023-05-04T23:00:25.898Z,14.50
2023-05-04T23:02:55.387Z,14.40
2023-05-04T23:05:24.973Z,14.40
2023-05-04T23:07:54.529Z,14.40
2023-05-04T23:10:21.536Z,14.50
2023-05-04T23:12:48.375Z,14.40
2023-05-04T23:15:15.272Z,14.40
2023-05-04T23:17:42.157Z,14.40
2023-05-04T23:20:10.131Z,14.40
2023-05-04T23:22:37.099Z,14.40
2023-05-04T23:25:04.324Z,14.30
2023-05-04T23:27:31.138Z,14.30
2023-05-04T23:29:57.892Z,14.30
2023-05-04T23:32:24.784Z,14.30
2023-05-04T23:34:51.588Z,14.30
2023-05-04T23:37:18.346Z,14.30
2023-05-04T23:39:48.005Z,14.20
2023-05-04T23:42:14.777Z,14.20
2023-05-04T23:44:41.539Z,14.20
2023-05-04T23:47:08.360Z,14.20
2023-05-04T23:49:35.152Z,14.20
2023-05-04T23:52:02.055Z,14.30
2023-05-04T23:54:28.836Z,14.30
2023-05-04T23:56:55.569Z,14.30
2023-05-04T23:59:22.342Z,14.20
